Time;durP1;ratioP1;P1;durP2;ratioP2;P2;SDS_P1;SDS_P2;PMS_P1;PMS_P2;Temp;Humidity;BMP_temperature;BMP_pressure;BME280_temperature;BME280_humidity;BME280_pressure;Samples;Min_cycle;Max_cycle;Signal;HPM_P1;HPM_P2
2023/12/06 00:00:48;;;;;;;66.70;33.78;;;;;;;;;;10266294;28;20441;-66
2023/12/06 00:05:44;;;;;;;57.92;31.23;;;;;;;;;;10262148;28;20588;-66
2023/12/06 00:10:41;;;;;;;65.05;32.80;;;;;;;;;;10263999;28;20049;-66
2023/12/06 00:15:37;;;;;;;64.22;33.22;;;;;;;;;;10267622;28;20049;-67
2023/12/06 00:20:33;;;;;;;58.35;31.95;;;;;;;;;;10263543;28;20049;-67
2023/12/06 00:25:30;;;;;;;56.90;30.42;;;;;;;;;;10274709;28;20056;-68
2023/12/06 00:30:26;;;;;;;60.88;31.35;;;;;;;;;;10265629;28;20059;-66
2023/12/06 00:35:22;;;;;;;53.95;29.58;;;;;;;;;;10265035;28;20045;-66
2023/12/06 00:40:19;;;;;;;55.33;31.80;;;;;;;;;;10262152;28;20491;-66
2023/12/06 00:45:15;;;;;;;46.63;28.75;;;;;;;;;;10268377;28;20041;-66
2023/12/06 00:50:12;;;;;;;47.40;28.98;;;;;;;;;;10261267;28;20061;-66
2023/12/06 00:55:08;;;;;;;52.38;29.23;;;;;;;;;;10257797;28;20045;-66
2023/12/06 01:00:06;;;;;;;52.92;30.65;;;;;;;;;;10270811;28;20041;-66
2023/12/06 01:05:04;;;;;;;49.88;28.98;;;;;;;;;;10259764;28;20070;-67
2023/12/06 01:10:00;;;;;;;57.05;30.00;;;;;;;;;;10246398;28;20053;-67
2023/12/06 01:14:56;;;;;;;51.42;30.23;;;;;;;;;;10264331;28;20051;-66
2023/12/06 01:19:54;;;;;;;57.67;32.67;;;;;;;;;;10254357;28;20042;-67
2023/12/06 01:24:55;;;;;;;54.78;29.30;;;;;;;;;;10269155;28;20116;-67
2023/12/06 01:29:52;;;;;;;53.53;30.20;;;;;;;;;;10258396;28;20050;-67
2023/12/06 01:35:04;;;;;;;61.42;33.13;;;;;;;;;;10263035;28;20472;-67
2023/12/06 01:40:00;;;;;;;65.50;33.72;;;;;;;;;;10255508;28;20052;-67
2023/12/06 01:44:56;;;;;;;54.42;30.60;;;;;;;;;;10264054;28;20124;-67
2023/12/06 01:49:54;;;;;;;63.42;33.92;;;;;;;;;;10261681;28;20045;-68
2023/12/06 01:54:51;;;;;;;62.10;33.33;;;;;;;;;;10259065;28;20052;-65
2023/12/06 01:59:48;;;;;;;68.72;33.85;;;;;;;;;;10248880;28;20053;-66
2023/12/06 02:04:44;;;;;;;57.83;32.30;;;;;;;;;;10252589;28;20048;-65
2023/12/06 02:09:40;;;;;;;64.78;35.30;;;;;;;;;;10265218;28;20092;-67
2023/12/06 02:14:36;;;;;;;69.47;33.75;;;;;;;;;;10267201;28;20049;-67
2023/12/06 02:19:33;;;;;;;59.75;32.33;;;;;;;;;;10266705;28;20049;-67
2023/12/06 02:24:30;;;;;;;61.65;32.17;;;;;;;;;;10254906;28;20053;-67
2023/12/06 02:29:26;;;;;;;66.85;33.60;;;;;;;;;;10259925;28;20136;-67
2023/12/06 02:34:24;;;;;;;66.63;34.35;;;;;;;;;;10255236;28;20055;-65
2023/12/06 02:39:21;;;;;;;59.10;32.03;;;;;;;;;;10258087;28;20139;-67
2023/12/06 02:44:17;;;;;;;63.75;31.95;;;;;;;;;;10261020;28;20041;-66
2023/12/06 02:49:13;;;;;;;69.50;34.08;;;;;;;;;;10258329;28;20071;-66
2023/12/06 02:54:10;;;;;;;66.88;33.03;;;;;;;;;;10266732;28;20037;-67
2023/12/06 02:59:06;;;;;;;66.30;33.42;;;;;;;;;;10241452;28;20195;-67
2023/12/06 03:04:05;;;;;;;62.20;32.38;;;;;;;;;;10249152;28;20041;-66
2023/12/06 03:09:02;;;;;;;67.97;32.72;;;;;;;;;;10248675;28;20052;-65
2023/12/06 03:13:58;;;;;;;68.05;32.35;;;;;;;;;;10261696;28;20656;-65
2023/12/06 03:18:55;;;;;;;55.20;30.67;;;;;;;;;;10252864;28;20061;-66
2023/12/06 03:23:51;;;;;;;57.08;33.13;;;;;;;;;;10265649;28;20054;-66
2023/12/06 03:28:48;;;;;;;58.85;32.53;;;;;;;;;;10257586;28;20068;-66
2023/12/06 03:33:44;;;;;;;55.10;31.92;;;;;;;;;;10246502;28;20050;-66
2023/12/06 03:38:40;;;;;;;64.70;33.70;;;;;;;;;;10269668;28;20042;-67
2023/12/06 03:43:37;;;;;;;63.35;35.55;;;;;;;;;;10248327;28;20506;-66
2023/12/06 03:48:34;;;;;;;68.03;33.05;;;;;;;;;;10267944;28;20111;-66
2023/12/06 03:53:30;;;;;;;63.63;32.65;;;;;;;;;;10266305;28;20107;-66
2023/12/06 03:58:26;;;;;;;62.03;34.95;;;;;;;;;;10262465;28;20045;-66
2023/12/06 04:03:23;;;;;;;58.95;33.47;;;;;;;;;;10262141;28;20057;-66
2023/12/06 04:08:20;;;;;;;69.13;34.50;;;;;;;;;;10275344;28;20069;-66
2023/12/06 04:13:16;;;;;;;70.25;35.72;;;;;;;;;;10263883;28;20052;-66
2023/12/06 04:18:13;;;;;;;65.55;35.55;;;;;;;;;;10264933;28;20521;-66
2023/12/06 04:23:10;;;;;;;65.72;32.78;;;;;;;;;;10253194;28;20103;-65
2023/12/06 04:28:07;;;;;;;63.78;34.95;;;;;;;;;;10260058;28;20049;-65
2023/12/06 04:33:03;;;;;;;73.38;35.95;;;;;;;;;;10257859;28;20037;-68
2023/12/06 04:38:00;;;;;;;74.90;35.58;;;;;;;;;;10257523;28;20049;-70
2023/12/06 04:42:57;;;;;;;72.40;34.97;;;;;;;;;;10244947;28;20410;-67
2023/12/06 04:47:53;;;;;;;71.68;35.53;;;;;;;;;;10258950;28;20494;-69
2023/12/06 04:52:50;;;;;;;68.63;34.65;;;;;;;;;;10255017;28;20045;-69
2023/12/06 04:57:46;;;;;;;64.55;35.78;;;;;;;;;;10257904;28;20052;-70
2023/12/06 05:02:43;;;;;;;64.72;34.75;;;;;;;;;;10254061;28;20506;-71
2023/12/06 05:07:39;;;;;;;61.33;35.40;;;;;;;;;;10250351;28;20038;-71
2023/12/06 05:12:36;;;;;;;66.50;33.63;;;;;;;;;;10248585;28;20042;-70
2023/12/06 05:23:40;;;;;;;66.00;34.53;;;;;;;;;;10265676;28;20127;-71
2023/12/06 05:28:52;;;;;;;69.03;37.50;;;;;;;;;;10422374;22;20100;-72
2023/12/06 05:33:48;;;;;;;73.93;38.63;;;;;;;;;;10426150;27;20043;-72
2023/12/06 05:38:45;;;;;;;73.38;37.25;;;;;;;;;;10393496;22;20119;-73
2023/12/06 05:43:42;;;;;;;78.68;39.97;;;;;;;;;;10359274;27;20043;-70
2023/12/06 05:48:38;;;;;;;80.25;38.13;;;;;;;;;;10386039;27;20519;-72
2023/12/06 05:53:35;;;;;;;82.40;41.30;;;;;;;;;;10382858;28;20413;-72
2023/12/06 05:58:31;;;;;;;88.22;39.20;;;;;;;;;;10378012;28;20528;-70
2023/12/06 06:03:27;;;;;;;68.78;36.45;;;;;;;;;;10382463;27;20059;-71
2023/12/06 06:08:25;;;;;;;80.18;40.45;;;;;;;;;;10367231;28;20122;-74
2023/12/06 06:13:21;;;;;;;77.45;38.97;;;;;;;;;;10365786;27;20043;-73
2023/12/06 06:18:18;;;;;;;81.90;40.42;;;;;;;;;;10378294;28;20063;-73
2023/12/06 06:23:14;;;;;;;86.88;41.83;;;;;;;;;;10370551;27;20044;-73
2023/12/06 06:28:11;;;;;;;85.00;41.25;;;;;;;;;;10377945;27;20044;-74
2023/12/06 06:33:07;;;;;;;84.15;40.92;;;;;;;;;;10357424;28;20055;-74
2023/12/06 06:38:04;;;;;;;93.28;42.20;;;;;;;;;;10379316;27;20047;-74
2023/12/06 06:43:01;;;;;;;100.07;43.40;;;;;;;;;;10391565;27;20442;-73
2023/12/06 06:47:57;;;;;;;85.68;42.33;;;;;;;;;;10372440;28;20048;-73
2023/12/06 06:52:54;;;;;;;97.72;43.53;;;;;;;;;;10365735;28;20481;-74
2023/12/06 06:57:50;;;;;;;91.40;42.35;;;;;;;;;;10377576;28;20035;-72
2023/12/06 07:02:47;;;;;;;88.10;41.70;;;;;;;;;;10387192;28;20039;-73
2023/12/06 07:07:43;;;;;;;93.88;43.33;;;;;;;;;;10386430;27;20162;-74
2023/12/06 07:12:40;;;;;;;93.35;42.58;;;;;;;;;;10367442;28;20113;-74
2023/12/06 07:18:09;;;;;;;93.55;42.08;;;;;;;;;;10317514;22;20054;-74
2023/12/06 07:30:16;;;;;;;85.68;40.90;;;;;;;;;;10030759;28;20597;-75
2023/12/06 07:41:22;;;;;;;89.22;41.58;;;;;;;;;;10123696;28;20420;-74
2023/12/06 07:46:18;;;;;;;102.32;45.08;;;;;;;;;;10098873;28;20053;-72
2023/12/06 07:51:15;;;;;;;100.10;43.88;;;;;;;;;;10123755;28;20732;-74
2023/12/06 08:01:24;;;;;;;100.70;44.10;;;;;;;;;;7944957;26;20078;-74
2023/12/06 08:06:20;;;;;;;87.82;41.72;;;;;;;;;;10257359;28;20041;-72
2023/12/06 08:11:17;;;;;;;106.80;45.92;;;;;;;;;;10193753;28;20042;-74
2023/12/06 08:16:13;;;;;;;106.00;44.47;;;;;;;;;;10212768;28;20037;-74
2023/12/06 08:21:10;;;;;;;98.00;41.85;;;;;;;;;;10227050;28;20145;-74
2023/12/06 08:26:06;;;;;;;89.88;41.72;;;;;;;;;;10221884;28;20384;-74
2023/12/06 08:31:03;;;;;;;90.43;41.55;;;;;;;;;;10222328;28;20074;-74
2023/12/06 08:36:00;;;;;;;97.85;44.00;;;;;;;;;;10239263;28;20038;-73
2023/12/06 08:40:56;;;;;;;106.15;44.08;;;;;;;;;;10208016;28;20038;-74
2023/12/06 08:45:53;;;;;;;105.00;45.72;;;;;;;;;;10229625;28;20042;-74
2023/12/06 08:50:49;;;;;;;93.70;42.13;;;;;;;;;;10268549;28;20516;-73
2023/12/06 08:55:45;;;;;;;116.18;46.15;;;;;;;;;;10205859;28;20512;-74
2023/12/06 09:00:42;;;;;;;98.90;44.08;;;;;;;;;;10237346;28;20048;-73
2023/12/06 09:05:38;;;;;;;106.18;45.75;;;;;;;;;;10272559;28;20117;-73
2023/12/06 09:10:35;;;;;;;93.50;43.63;;;;;;;;;;10235320;28;20047;-74
2023/12/06 09:15:31;;;;;;;95.20;43.67;;;;;;;;;;10278517;28;20045;-75
2023/12/06 09:20:28;;;;;;;97.28;44.17;;;;;;;;;;10201212;28;20068;-73
2023/12/06 09:25:24;;;;;;;108.30;47.67;;;;;;;;;;10255113;28;20046;-74
2023/12/06 09:30:21;;;;;;;110.18;46.28;;;;;;;;;;10221455;28;20500;-74
2023/12/06 09:35:18;;;;;;;105.53;47.28;;;;;;;;;;10284535;28;20075;-74
2023/12/06 09:40:14;;;;;;;100.20;45.40;;;;;;;;;;10220221;28;20045;-73
2023/12/06 09:45:12;;;;;;;95.68;43.20;;;;;;;;;;10203477;28;20453;-73
2023/12/06 09:50:10;;;;;;;111.13;46.50;;;;;;;;;;10237117;28;20521;-74
2023/12/06 09:55:06;;;;;;;108.82;46.88;;;;;;;;;;10221514;28;20045;-74
2023/12/06 10:00:03;;;;;;;99.85;44.78;;;;;;;;;;10233873;28;20057;-73
2023/12/06 10:05:07;;;;;;;102.72;44.03;;;;;;;;;;10230635;28;20071;-73
2023/12/06 10:10:04;;;;;;;103.53;44.70;;;;;;;;;;10232973;28;20140;-73
2023/12/06 10:15:00;;;;;;;107.75;47.35;;;;;;;;;;10179484;28;20726;-74
2023/12/06 10:19:57;;;;;;;104.47;45.10;;;;;;;;;;10269965;28;20407;-74
2023/12/06 10:24:56;;;;;;;99.55;45.58;;;;;;;;;;10270841;28;20040;-74
2023/12/06 10:29:53;;;;;;;98.65;45.92;;;;;;;;;;10190409;28;20541;-74
2023/12/06 10:34:49;;;;;;;103.68;44.63;;;;;;;;;;10217239;28;20167;-73
2023/12/06 10:39:49;;;;;;;97.72;45.63;;;;;;;;;;10214136;28;20050;-74
2023/12/06 10:44:45;;;;;;;103.32;45.95;;;;;;;;;;10210677;28;20042;-74
2023/12/06 10:49:53;;;;;;;110.80;48.67;;;;;;;;;;10420181;27;2200817;-73
2023/12/06 10:54:50;;;;;;;100.68;46.67;;;;;;;;;;10515259;27;20038;-73
2023/12/06 10:59:46;;;;;;;104.88;47.05;;;;;;;;;;10492598;27;20565;-72
2023/12/06 11:04:47;;;;;;;115.47;47.50;;;;;;;;;;10482684;27;20122;-72
2023/12/06 11:10:09;;;;;;;102.60;44.20;;;;;;;;;;10475484;27;20611;-73
2023/12/06 11:15:24;;;;;;;104.82;44.50;;;;;;;;;;10430958;27;20093;-73
2023/12/06 11:20:20;;;;;;;102.88;45.75;;;;;;;;;;10462276;27;20039;-72
2023/12/06 11:25:17;;;;;;;108.35;47.30;;;;;;;;;;10442652;27;20073;-73
2023/12/06 11:30:19;;;;;;;106.57;46.35;;;;;;;;;;10467622;27;20121;-73
2023/12/06 11:35:15;;;;;;;123.20;47.83;;;;;;;;;;10486950;27;20518;-72
2023/12/06 11:40:12;;;;;;;116.10;46.08;;;;;;;;;;10470613;27;20065;-72
2023/12/06 11:45:25;;;;;;;114.55;47.03;;;;;;;;;;10482366;27;20391;-73
2023/12/06 11:50:22;;;;;;;100.95;46.92;;;;;;;;;;10460585;27;20274;-72
2023/12/06 11:55:19;;;;;;;115.03;47.45;;;;;;;;;;10465091;27;20099;-72
2023/12/06 12:00:15;;;;;;;116.85;46.20;;;;;;;;;;10444762;27;20047;-72
2023/12/06 12:05:12;;;;;;;108.88;45.35;;;;;;;;;;10429554;27;20043;-72
2023/12/06 12:10:09;;;;;;;119.97;46.08;;;;;;;;;;10419202;27;20051;-73
2023/12/06 12:15:06;;;;;;;99.40;44.53;;;;;;;;;;10452089;27;20040;-73
2023/12/06 12:20:03;;;;;;;119.43;48.50;;;;;;;;;;10449243;27;20061;-71
2023/12/06 12:25:00;;;;;;;114.05;45.53;;;;;;;;;;10437355;27;20056;-72
2023/12/06 12:29:56;;;;;;;116.93;47.28;;;;;;;;;;10433540;27;20051;-72
2023/12/06 12:34:53;;;;;;;109.35;43.92;;;;;;;;;;10429871;27;20128;-72
2023/12/06 12:39:49;;;;;;;122.18;46.70;;;;;;;;;;10442763;27;20043;-73
2023/12/06 12:44:45;;;;;;;107.85;46.15;;;;;;;;;;10438829;27;20120;-73
2023/12/06 12:49:42;;;;;;;121.47;47.47;;;;;;;;;;10418580;27;20191;-73
2023/12/06 12:54:40;;;;;;;115.78;46.03;;;;;;;;;;10446999;27;20460;-73
2023/12/06 12:59:37;;;;;;;106.60;44.13;;;;;;;;;;10418382;27;20647;-73
2023/12/06 13:04:33;;;;;;;110.63;44.63;;;;;;;;;;10447363;27;20531;-73
2023/12/06 13:09:30;;;;;;;122.88;46.80;;;;;;;;;;10445544;27;20040;-73
2023/12/06 13:14:27;;;;;;;112.25;43.72;;;;;;;;;;10448932;27;20038;-74
2023/12/06 13:19:23;;;;;;;116.63;42.95;;;;;;;;;;10436155;27;20599;-74
2023/12/06 13:24:20;;;;;;;108.00;44.20;;;;;;;;;;10445997;27;20043;-71
2023/12/06 13:29:16;;;;;;;121.90;44.97;;;;;;;;;;10438944;27;20043;-73
2023/12/06 13:34:13;;;;;;;121.75;44.88;;;;;;;;;;10441694;27;20046;-74
2023/12/06 13:39:11;;;;;;;123.13;46.33;;;;;;;;;;10440245;27;20054;-69
2023/12/06 13:44:07;;;;;;;125.72;47.45;;;;;;;;;;10405762;27;20442;-69
2023/12/06 13:49:04;;;;;;;119.50;45.00;;;;;;;;;;10411627;27;20039;-71
2023/12/06 13:54:01;;;;;;;128.95;47.53;;;;;;;;;;10432255;27;20162;-71
2023/12/06 13:58:57;;;;;;;119.28;44.45;;;;;;;;;;10422157;27;20494;-71
2023/12/06 14:03:55;;;;;;;117.63;45.65;;;;;;;;;;10432762;27;20043;-70
2023/12/06 14:08:52;;;;;;;114.80;44.55;;;;;;;;;;10430600;27;20039;-70
2023/12/06 14:13:49;;;;;;;115.47;44.88;;;;;;;;;;10430924;27;20039;-71
2023/12/06 14:18:45;;;;;;;102.45;41.20;;;;;;;;;;10418104;27;20067;-71
2023/12/06 14:23:42;;;;;;;108.60;42.78;;;;;;;;;;10438297;27;20071;-70
2023/12/06 14:28:41;;;;;;;120.70;43.67;;;;;;;;;;10448257;27;20042;-70
2023/12/06 14:33:37;;;;;;;116.03;43.58;;;;;;;;;;10435493;27;20092;-70
2023/12/06 14:38:34;;;;;;;108.28;44.63;;;;;;;;;;10437399;27;20071;-70
2023/12/06 14:43:31;;;;;;;113.65;41.85;;;;;;;;;;10432785;27;20041;-71
2023/12/06 14:48:27;;;;;;;100.55;39.80;;;;;;;;;;10426787;27;20084;-71
2023/12/06 14:53:24;;;;;;;83.03;37.72;;;;;;;;;;10419891;27;20048;-69
2023/12/06 14:58:20;;;;;;;99.38;40.15;;;;;;;;;;10437093;27;20137;-69
2023/12/06 15:03:17;;;;;;;108.50;41.00;;;;;;;;;;10421549;27;20070;-70
2023/12/06 15:08:13;;;;;;;100.63;41.33;;;;;;;;;;10437238;27;20070;-70
2023/12/06 15:13:11;;;;;;;96.07;37.25;;;;;;;;;;10435119;27;20039;-70
2023/12/06 15:18:07;;;;;;;113.47;40.30;;;;;;;;;;10424460;27;20043;-70
2023/12/06 15:23:04;;;;;;;96.95;37.42;;;;;;;;;;10449820;27;20130;-70
2023/12/06 15:28:00;;;;;;;90.78;36.78;;;;;;;;;;10431354;27;20043;-70
2023/12/06 15:32:56;;;;;;;98.15;36.72;;;;;;;;;;10441689;27;20043;-69
2023/12/06 15:37:53;;;;;;;100.82;38.40;;;;;;;;;;10430626;27;20399;-69
2023/12/06 15:42:51;;;;;;;95.90;38.47;;;;;;;;;;10428130;27;20040;-69
2023/12/06 15:47:48;;;;;;;104.88;39.75;;;;;;;;;;10448621;27;20479;-70
2023/12/06 15:52:45;;;;;;;116.78;42.67;;;;;;;;;;10443697;27;20054;-69
2023/12/06 15:57:41;;;;;;;112.70;39.85;;;;;;;;;;10440108;27;20138;-69
2023/12/06 16:02:51;;;;;;;107.10;41.30;;;;;;;;;;10427812;27;20047;-70
2023/12/06 16:07:47;;;;;;;125.30;44.08;;;;;;;;;;10429167;27;20464;-70
2023/12/06 16:12:44;;;;;;;115.35;42.17;;;;;;;;;;10447596;27;20409;-71
2023/12/06 16:17:41;;;;;;;101.75;39.58;;;;;;;;;;10441956;27;20728;-70
2023/12/06 16:22:38;;;;;;;115.13;43.17;;;;;;;;;;10442412;27;20517;-69
2023/12/06 16:27:34;;;;;;;126.88;41.38;;;;;;;;;;10436915;27;20043;-68
2023/12/06 16:32:33;;;;;;;112.20;42.90;;;;;;;;;;10418507;27;20064;-69
2023/12/06 16:37:30;;;;;;;110.63;40.83;;;;;;;;;;10439419;27;20104;-71
2023/12/06 16:42:26;;;;;;;111.75;42.50;;;;;;;;;;10422683;27;20090;-68
2023/12/06 16:47:22;;;;;;;90.28;36.50;;;;;;;;;;10425695;27;20624;-68
2023/12/06 16:52:20;;;;;;;109.30;40.20;;;;;;;;;;10439369;27;20039;-71
2023/12/06 16:57:16;;;;;;;112.18;43.22;;;;;;;;;;10405833;27;20059;-71
2023/12/06 17:02:13;;;;;;;117.15;41.30;;;;;;;;;;10432090;27;20050;-71
2023/12/06 17:07:10;;;;;;;116.97;39.15;;;;;;;;;;10429708;27;20045;-71
2023/12/06 17:12:07;;;;;;;102.85;39.50;;;;;;;;;;10442497;27;20459;-72
2023/12/06 17:17:03;;;;;;;109.35;39.00;;;;;;;;;;10435193;27;20057;-71
2023/12/06 17:22:02;;;;;;;105.72;39.83;;;;;;;;;;10446637;27;20555;-71
2023/12/06 17:26:59;;;;;;;94.45;38.03;;;;;;;;;;10429947;27;20048;-71
2023/12/06 17:31:55;;;;;;;108.13;42.50;;;;;;;;;;10432096;27;20047;-72
2023/12/06 17:36:52;;;;;;;116.38;41.92;;;;;;;;;;10436616;27;20108;-71
2023/12/06 17:41:48;;;;;;;111.72;39.88;;;;;;;;;;10422941;27;20406;-72
2023/12/06 17:46:45;;;;;;;115.28;41.45;;;;;;;;;;10433753;27;20391;-72
2023/12/06 17:51:44;;;;;;;110.00;38.63;;;;;;;;;;10429257;27;20053;-71
2023/12/06 17:56:40;;;;;;;112.72;40.33;;;;;;;;;;10428181;27;20043;-72
2023/12/06 18:01:37;;;;;;;105.70;38.88;;;;;;;;;;10419013;27;20090;-72
2023/12/06 18:06:33;;;;;;;113.55;40.40;;;;;;;;;;10418873;27;20053;-72
2023/12/06 18:11:30;;;;;;;118.57;41.15;;;;;;;;;;10436348;27;20036;-71
2023/12/06 18:16:26;;;;;;;117.43;40.00;;;;;;;;;;10427726;27;20079;-72
2023/12/06 18:21:23;;;;;;;120.22;40.63;;;;;;;;;;10448902;27;20438;-71
2023/12/06 18:26:20;;;;;;;121.47;39.78;;;;;;;;;;10431711;27;20050;-71
2023/12/06 18:31:16;;;;;;;113.40;39.80;;;;;;;;;;10443440;27;20055;-72
2023/12/06 18:36:13;;;;;;;99.97;39.22;;;;;;;;;;10421298;27;20038;-72
2023/12/06 18:41:09;;;;;;;134.90;42.17;;;;;;;;;;10433639;27;20043;-71
2023/12/06 18:46:06;;;;;;;110.43;38.35;;;;;;;;;;10414282;27;20048;-72
2023/12/06 18:51:03;;;;;;;113.35;40.22;;;;;;;;;;10421301;27;20046;-72
2023/12/06 18:55:59;;;;;;;125.55;41.35;;;;;;;;;;10448205;27;20039;-72
2023/12/06 19:00:55;;;;;;;128.75;41.13;;;;;;;;;;10438325;27;20047;-72
2023/12/06 19:05:52;;;;;;;120.03;40.22;;;;;;;;;;10443114;27;20069;-72
2023/12/06 19:10:48;;;;;;;100.78;39.78;;;;;;;;;;10433870;27;20042;-71
2023/12/06 19:15:45;;;;;;;110.97;40.60;;;;;;;;;;10442505;27;20043;-71
2023/12/06 19:20:42;;;;;;;125.60;41.42;;;;;;;;;;10443242;27;20495;-72
2023/12/06 19:25:38;;;;;;;132.18;42.90;;;;;;;;;;10438567;27;20050;-70
2023/12/06 19:30:34;;;;;;;131.50;44.30;;;;;;;;;;10413231;27;20104;-68
2023/12/06 19:35:31;;;;;;;167.40;46.30;;;;;;;;;;10424841;27;20042;-67
2023/12/06 19:40:27;;;;;;;139.73;46.67;;;;;;;;;;10427556;27;20052;-67
2023/12/06 19:45:24;;;;;;;148.73;46.63;;;;;;;;;;10423285;27;20061;-67
2023/12/06 19:50:20;;;;;;;127.18;43.97;;;;;;;;;;10426364;27;20116;-68
2023/12/06 19:55:16;;;;;;;260.98;49.40;;;;;;;;;;10426899;27;20132;-68
2023/12/06 20:00:14;;;;;;;141.85;43.20;;;;;;;;;;10421210;27;20442;-69
2023/12/06 20:05:11;;;;;;;136.75;46.53;;;;;;;;;;10425144;27;20096;-70
2023/12/06 20:10:11;;;;;;;118.72;43.40;;;;;;;;;;10423909;27;20101;-69
2023/12/06 20:15:08;;;;;;;125.70;44.00;;;;;;;;;;10431361;27;20479;-70
2023/12/06 20:20:04;;;;;;;118.22;42.03;;;;;;;;;;10427663;27;20510;-69
2023/12/06 20:25:01;;;;;;;117.68;43.15;;;;;;;;;;10427054;27;20047;-69
2023/12/06 20:29:58;;;;;;;97.82;39.50;;;;;;;;;;10443627;27;20043;-67
2023/12/06 20:34:55;;;;;;;118.38;40.60;;;;;;;;;;10423165;27;20035;-68
2023/12/06 20:39:52;;;;;;;117.65;42.47;;;;;;;;;;10432846;27;20521;-69
2023/12/06 20:44:48;;;;;;;123.78;43.60;;;;;;;;;;10437850;27;20499;-69
2023/12/06 20:49:49;;;;;;;127.90;43.10;;;;;;;;;;10439541;27;20038;-69
2023/12/06 20:54:46;;;;;;;119.00;42.72;;;;;;;;;;10429929;27;20042;-69
2023/12/06 20:59:43;;;;;;;121.53;40.60;;;;;;;;;;10440330;27;20045;-69
2023/12/06 21:04:40;;;;;;;112.13;40.30;;;;;;;;;;10429701;27;20043;-68
2023/12/06 21:09:37;;;;;;;112.35;41.03;;;;;;;;;;10430985;27;20064;-68
2023/12/06 21:14:33;;;;;;;115.75;41.42;;;;;;;;;;10427074;27;20081;-68
2023/12/06 21:19:29;;;;;;;111.45;41.65;;;;;;;;;;10423940;27;20043;-68
2023/12/06 21:24:26;;;;;;;117.43;42.22;;;;;;;;;;10434012;27;20498;-68
2023/12/06 21:29:24;;;;;;;119.15;42.22;;;;;;;;;;10453412;27;20036;-69
2023/12/06 21:34:21;;;;;;;112.55;40.75;;;;;;;;;;10428281;27;20055;-67
2023/12/06 21:39:17;;;;;;;129.32;41.65;;;;;;;;;;10426117;27;20134;-66
2023/12/06 21:44:14;;;;;;;121.13;42.00;;;;;;;;;;10426328;27;20047;-67
2023/12/06 21:49:11;;;;;;;112.35;42.60;;;;;;;;;;10428877;27;20043;-67
2023/12/06 21:54:07;;;;;;;120.05;40.90;;;;;;;;;;10424751;27;20039;-68
2023/12/06 21:59:04;;;;;;;113.05;39.35;;;;;;;;;;10433717;27;20042;-68
2023/12/06 22:04:00;;;;;;;105.00;38.50;;;;;;;;;;10435430;27;20039;-68
2023/12/06 22:08:58;;;;;;;136.57;41.55;;;;;;;;;;10431217;27;20039;-68
2023/12/06 22:13:54;;;;;;;112.53;39.97;;;;;;;;;;10431403;27;20042;-68
2023/12/06 22:18:50;;;;;;;108.50;38.42;;;;;;;;;;10434361;27;20050;-68
2023/12/06 22:23:47;;;;;;;108.38;39.00;;;;;;;;;;10430441;27;20448;-70
2023/12/06 22:28:43;;;;;;;105.95;37.80;;;;;;;;;;10435812;27;20066;-67
2023/12/06 22:33:40;;;;;;;137.32;43.10;;;;;;;;;;10406429;27;20036;-68
2023/12/06 22:38:36;;;;;;;127.13;40.95;;;;;;;;;;10425181;27;20457;-68
2023/12/06 22:43:33;;;;;;;125.40;39.83;;;;;;;;;;10436221;27;20039;-68
2023/12/06 22:48:30;;;;;;;124.55;39.78;;;;;;;;;;10439686;27;20121;-67
2023/12/06 22:53:27;;;;;;;127.50;38.20;;;;;;;;;;10404604;27;20493;-69
2023/12/06 22:58:24;;;;;;;133.95;41.30;;;;;;;;;;10440216;27;20126;-68
2023/12/06 23:03:20;;;;;;;116.65;39.90;;;;;;;;;;10413082;27;20048;-67
2023/12/06 23:08:20;;;;;;;104.03;37.10;;;;;;;;;;10428295;27;20510;-68
2023/12/06 23:13:16;;;;;;;117.32;38.15;;;;;;;;;;10445080;27;20043;-69
2023/12/06 23:18:13;;;;;;;114.20;38.25;;;;;;;;;;10418696;27;20142;-69
2023/12/06 23:23:18;;;;;;;107.28;37.10;;;;;;;;;;10419422;27;20495;-69
2023/12/06 23:28:14;;;;;;;133.05;40.50;;;;;;;;;;10431966;27;20400;-69
2023/12/06 23:33:11;;;;;;;115.97;39.95;;;;;;;;;;10434570;27;20096;-68
2023/12/06 23:38:07;;;;;;;111.90;37.50;;;;;;;;;;10440028;27;20602;-67
2023/12/06 23:43:03;;;;;;;123.45;40.10;;;;;;;;;;10430035;27;20568;-69
2023/12/06 23:48:02;;;;;;;96.18;37.35;;;;;;;;;;10426097;27;20038;-69
2023/12/06 23:52:58;;;;;;;108.78;39.50;;;;;;;;;;10410412;27;20043;-70
2023/12/06 23:57:56;;;;;;;102.57;39.80;;;;;;;;;;10433404;27;20043;-70
